createdAt,value
2018-02-20T00:01:07.027Z,1009.3
2018-02-20T00:02:17.029Z,1009.28
2018-02-20T00:03:26.781Z,1009.3
2018-02-20T00:04:35.734Z,1009.33
2018-02-20T00:05:45.485Z,1009.31
2018-02-20T00:06:55.335Z,1009.3
2018-02-20T00:08:05.334Z,1009.25
2018-02-20T00:09:14.588Z,1009.25
2018-02-20T00:10:24.331Z,1009.21
2018-02-20T00:11:34.331Z,1009.19
2018-02-20T00:12:44.442Z,1009.18
2018-02-20T00:13:54.286Z,1009.14
2018-02-20T00:15:04.028Z,1009.14
2018-02-20T00:16:13.833Z,1009.15
2018-02-20T00:17:23.576Z,1009.12
2018-02-20T00:18:33.318Z,1009.1
2018-02-20T00:19:43.384Z,1009.1
2018-02-20T00:20:53.124Z,1009.07
2018-02-20T00:22:02.864Z,1009.06
2018-02-20T00:23:12.880Z,1009.05
2018-02-20T00:24:22.888Z,1009.04
2018-02-20T00:25:32.657Z,1008.99
2018-02-20T00:26:42.156Z,1009
2018-02-20T00:27:51.466Z,1009
2018-02-20T00:29:01.188Z,1008.95
2018-02-20T00:30:11.237Z,1008.97
2018-02-20T00:31:21.002Z,1008.98
2018-02-20T00:32:30.734Z,1008.95
2018-02-20T00:33:40.485Z,1008.97
2018-02-20T00:34:49.686Z,1008.92
2018-02-20T00:35:59.844Z,1008.91
2018-02-20T00:37:09.361Z,1008.89
2018-02-20T00:38:18.837Z,1008.91
2018-02-20T00:39:28.304Z,1008.9
2018-02-20T00:40:38.028Z,1008.9
2018-02-20T00:41:48.077Z,1008.9
2018-02-20T00:42:58.078Z,1008.93
2018-02-20T00:44:07.567Z,1008.93
2018-02-20T00:45:17.304Z,1008.92
2018-02-20T00:46:26.791Z,1008.93
2018-02-20T00:47:36.291Z,1008.9
2018-02-20T00:48:46.310Z,1008.86
2018-02-20T00:49:55.776Z,1008.88
2018-02-20T00:51:04.711Z,1008.87
2018-02-20T00:52:14.481Z,1008.83
2018-02-20T00:53:24.371Z,1008.82
2018-02-20T00:54:34.542Z,1008.79
2018-02-20T00:55:44.293Z,1008.74
2018-02-20T00:56:54.087Z,1008.68
2018-02-20T00:58:04.057Z,1008.67
2018-02-20T00:59:14.065Z,1008.63
2018-02-20T01:00:23.805Z,1008.67
2018-02-20T01:01:32.911Z,1008.69
2018-02-20T01:02:42.228Z,1008.68
2018-02-20T01:03:51.690Z,1008.71
2018-02-20T01:05:01.424Z,1008.69
2018-02-20T01:06:10.898Z,1008.7
2018-02-20T01:07:21.204Z,1008.72
2018-02-20T01:08:31.224Z,1008.7
2018-02-20T01:09:40.690Z,1008.69
2018-02-20T01:10:50.426Z,1008.73
2018-02-20T01:12:00.443Z,1008.73
2018-02-20T01:13:09.905Z,1008.78
2018-02-20T01:14:19.941Z,1008.75
2018-02-20T01:15:29.142Z,1008.74
2018-02-20T01:16:38.886Z,1008.76
2018-02-20T01:17:48.078Z,1008.78
2018-02-20T01:18:57.821Z,1008.77
2018-02-20T01:20:07.917Z,1008.79
2018-02-20T01:21:17.648Z,1008.82
2018-02-20T01:22:27.113Z,1008.8
2018-02-20T01:23:37.106Z,1008.78
2018-02-20T01:24:47.099Z,1008.83
2018-02-20T01:25:57.091Z,1008.78
2018-02-20T01:27:06.820Z,1008.82
2018-02-20T01:28:16.651Z,1008.85
2018-02-20T01:29:26.377Z,1008.85
2018-02-20T01:30:35.856Z,1008.87
2018-02-20T01:31:45.366Z,1008.89
2018-02-20T01:32:55.089Z,1008.92
2018-02-20T01:34:04.826Z,1008.92
2018-02-20T01:35:14.821Z,1008.92
2018-02-20T01:36:24.283Z,1008.96
2018-02-20T01:37:33.768Z,1008.96
2018-02-20T01:38:43.544Z,1008.92
2018-02-20T01:39:53.283Z,1008.94
2018-02-20T01:41:03.345Z,1008.96
2018-02-20T01:42:12.803Z,1008.99
2018-02-20T01:43:22.267Z,1008.96
2018-02-20T01:44:32.267Z,1008.97
2018-02-20T01:45:41.459Z,1009.02
2018-02-20T01:46:51.188Z,1009.01
2018-02-20T01:48:00.639Z,1009.03
2018-02-20T01:49:10.366Z,1009.01
2018-02-20T01:50:20.369Z,1009
2018-02-20T01:51:30.382Z,1009.02
2018-02-20T01:52:39.842Z,1009.07
2018-02-20T01:53:49.640Z,1009.02
2018-02-20T01:54:59.367Z,1009.01
2018-02-20T01:56:09.362Z,1009.05
2018-02-20T01:57:19.088Z,1009.02
2018-02-20T01:58:28.828Z,1009.03
2018-02-20T01:59:38.286Z,1009.04
2018-02-20T02:00:47.477Z,1009.02
2018-02-20T02:01:57.203Z,1009
2018-02-20T02:03:06.988Z,1008.99
2018-02-20T02:04:16.191Z,1009
2018-02-20T02:05:25.918Z,1008.94
2018-02-20T02:06:35.374Z,1008.98
2018-02-20T02:07:44.827Z,1008.98
2018-02-20T02:08:54.288Z,1008.93
2018-02-20T02:10:04.287Z,1008.99
2018-02-20T02:11:14.281Z,1009
2018-02-20T02:12:23.745Z,1009
2018-02-20T02:13:33.205Z,1009.04
2018-02-20T02:14:43.206Z,1009.02
2018-02-20T02:15:52.407Z,1009.03
2018-02-20T02:17:01.878Z,1009.03
2018-02-20T02:18:11.607Z,1009.04
2018-02-20T02:19:21.670Z,1009.03
2018-02-20T02:20:31.129Z,1009
2018-02-20T02:21:40.599Z,1009.02
2018-02-20T02:22:49.531Z,1009.04
2018-02-20T02:23:59.549Z,1009
2018-02-20T02:25:09.020Z,1009.01
2018-02-20T02:26:19.020Z,1009.01
2018-02-20T02:27:28.486Z,1009.02
2018-02-20T02:28:38.216Z,1009.03
2018-02-20T02:29:47.679Z,1009.03
2018-02-20T02:30:56.884Z,1009
2018-02-20T02:32:06.087Z,1008.98
2018-02-20T02:33:15.847Z,1009.02
2018-02-20T02:34:25.854Z,1009
2018-02-20T02:35:35.588Z,1008.99
2018-02-20T02:36:57.814Z,1008.99
2018-02-20T02:38:07.565Z,1008.97
2018-02-20T02:39:17.570Z,1008.95
2018-02-20T02:40:27.036Z,1008.98
2018-02-20T02:41:36.501Z,1009
2018-02-20T02:42:45.974Z,1009.02
2018-02-20T02:43:55.453Z,1009.02
2018-02-20T02:45:05.200Z,1009.03
2018-02-20T02:46:14.953Z,1009.05
2018-02-20T02:47:24.435Z,1009.08
2018-02-20T02:48:33.913Z,1009.06
2018-02-20T02:49:43.392Z,1009.05
2018-02-20T02:50:53.144Z,1009.02
2018-02-20T02:52:02.346Z,1009.09
2018-02-20T02:53:11.826Z,1009.04
2018-02-20T02:54:21.606Z,1009.03
2018-02-20T02:55:31.350Z,1009.01
2018-02-20T02:56:41.100Z,1009.06
2018-02-20T02:57:50.561Z,1009.04
2018-02-20T02:59:00.307Z,1009.04
2018-02-20T03:00:10.054Z,1009.01
2018-02-20T03:01:19.782Z,1009.03
2018-02-20T03:02:29.262Z,1009.03
2018-02-20T03:03:39.004Z,1009.06
2018-02-20T03:04:48.738Z,1009.07
2018-02-20T03:05:58.758Z,1009.05
2018-02-20T03:07:08.505Z,1009.04
2018-02-20T03:08:18.300Z,1009.04
2018-02-20T03:09:28.032Z,1009.08
2018-02-20T03:10:38.092Z,1009.1
2018-02-20T03:11:48.087Z,1009.11
2018-02-20T03:12:57.561Z,1009.1
2018-02-20T03:14:07.563Z,1009.11
2018-02-20T03:15:17.568Z,1009.16
2018-02-20T03:16:27.562Z,1009.14
2018-02-20T03:17:37.302Z,1009.12
2018-02-20T03:18:46.765Z,1009.11
2018-02-20T03:19:56.225Z,1009.11
2018-02-20T03:21:05.417Z,1009.11
2018-02-20T03:22:15.430Z,1009.14
2018-02-20T03:23:25.155Z,1009.17
2018-02-20T03:24:34.900Z,1009.13
2018-02-20T03:25:44.900Z,1009.15
2018-02-20T03:26:54.640Z,1009.11
2018-02-20T03:28:04.632Z,1009.07
2018-02-20T03:29:14.371Z,1009.04
2018-02-20T03:30:24.113Z,1009.07
2018-02-20T03:31:33.870Z,1009.05
2018-02-20T03:32:43.353Z,1009.01
2018-02-20T03:33:52.554Z,1008.98
2018-02-20T03:35:02.298Z,1008.98
2018-02-20T03:36:12.047Z,1008.93
2018-02-20T03:37:21.525Z,1008.95
2018-02-20T03:38:31.524Z,1008.95
2018-02-20T03:39:40.986Z,1008.99
2018-02-20T03:40:50.720Z,1008.94
2018-02-20T03:42:00.473Z,1008.96
2018-02-20T03:43:09.938Z,1008.96
2018-02-20T03:44:19.657Z,1008.99
2018-02-20T03:45:29.116Z,1008.99
2018-02-20T03:46:38.854Z,1009
2018-02-20T03:47:48.856Z,1008.97
2018-02-20T03:48:58.858Z,1008.96
2018-02-20T03:50:08.350Z,1008.97
2018-02-20T03:51:17.813Z,1008.97
2018-02-20T03:52:27.271Z,1008.97
2018-02-20T03:53:36.200Z,1008.97
2018-02-20T03:54:45.685Z,1008.93
2018-02-20T03:55:55.174Z,1008.97
2018-02-20T03:57:04.894Z,1009.04
2018-02-20T03:58:14.892Z,1009
2018-02-20T03:59:24.628Z,1009.01
2018-02-20T04:00:34.108Z,1009.02
2018-02-20T04:01:43.841Z,1009.06
2018-02-20T04:02:53.566Z,1009.03
2018-02-20T04:04:03.041Z,1009.08
2018-02-20T04:05:12.529Z,1009.09
2018-02-20T04:06:22.275Z,1009.08
2018-02-20T04:07:31.751Z,1009.13
2018-02-20T04:08:41.214Z,1009.12
2018-02-20T04:09:50.966Z,1009.13
2018-02-20T04:11:00.710Z,1009.18
2018-02-20T04:12:10.451Z,1009.17
2018-02-20T04:13:19.396Z,1009.2
2018-02-20T04:14:29.135Z,1009.17
2018-02-20T04:15:39.131Z,1009.17
2018-02-20T04:16:48.065Z,1009.15
2018-02-20T04:17:57.805Z,1009.15
2018-02-20T04:19:07.266Z,1009.15
2018-02-20T04:20:17.270Z,1009.18
2018-02-20T04:21:26.997Z,1009.18
2018-02-20T04:22:36.737Z,1009.17
2018-02-20T04:23:46.467Z,1009.18
2018-02-20T04:24:56.218Z,1009.2
2018-02-20T04:26:05.683Z,1009.19
2018-02-20T04:27:15.677Z,1009.21
2018-02-20T04:28:25.396Z,1009.19
2018-02-20T04:29:35.391Z,1009.17
2018-02-20T04:30:45.120Z,1009.17
2018-02-20T04:31:54.851Z,1009.18
2018-02-20T04:33:04.689Z,1009.15
2018-02-20T04:34:14.433Z,1009.17
2018-02-20T04:35:23.890Z,1009.21
2018-02-20T04:36:33.610Z,1009.2
2018-02-20T04:37:43.063Z,1009.21
2018-02-20T04:38:52.789Z,1009.24
2018-02-20T04:40:01.707Z,1009.25
2018-02-20T04:41:11.698Z,1009.24
2018-02-20T04:42:21.419Z,1009.26
2018-02-20T04:43:30.906Z,1009.27
2018-02-20T04:44:40.371Z,1009.26
2018-02-20T04:45:49.839Z,1009.3
2018-02-20T04:46:59.295Z,1009.33
2018-02-20T04:48:07.953Z,1009.26
2018-02-20T04:49:17.677Z,1009.29
2018-02-20T04:50:27.675Z,1009.28
2018-02-20T04:51:37.404Z,1009.22
2018-02-20T04:52:47.131Z,1009.22
2018-02-20T04:53:56.325Z,1009.21
2018-02-20T04:55:05.786Z,1009.23
2018-02-20T04:56:15.796Z,1009.19
2018-02-20T04:57:24.991Z,1009.18
2018-02-20T04:58:34.722Z,1009.2
2018-02-20T04:59:44.177Z,1009.22
2018-02-20T05:00:53.372Z,1009.24
2018-02-20T05:02:03.096Z,1009.22
2018-02-20T05:03:12.823Z,1009.28
2018-02-20T05:04:22.540Z,1009.25
2018-02-20T05:05:31.997Z,1009.26
2018-02-20T05:06:41.996Z,1009.3
2018-02-20T05:07:51.452Z,1009.24
2018-02-20T05:09:01.443Z,1009.3
2018-02-20T05:10:10.903Z,1009.32
2018-02-20T05:11:20.620Z,1009.29
2018-02-20T05:12:29.867Z,1009.3
2018-02-20T05:13:39.866Z,1009.29
2018-02-20T05:14:49.319Z,1009.24
2018-02-20T05:15:59.037Z,1009.3
2018-02-20T05:17:08.503Z,1009.25
2018-02-20T05:18:17.693Z,1009.31
2018-02-20T05:19:26.884Z,1009.29
2018-02-20T05:20:36.346Z,1009.32
2018-02-20T05:21:45.863Z,1009.33
2018-02-20T05:22:55.614Z,1009.33
2018-02-20T05:24:05.341Z,1009.35
2018-02-20T05:25:15.076Z,1009.33
2018-02-20T05:26:24.541Z,1009.29
2018-02-20T05:27:34.272Z,1009.3
2018-02-20T05:28:43.744Z,1009.3
2018-02-20T05:29:53.484Z,1009.27
2018-02-20T05:31:02.676Z,1009.31
2018-02-20T05:32:12.410Z,1009.25
2018-02-20T05:33:22.150Z,1009.28
2018-02-20T05:34:32.140Z,1009.24
2018-02-20T05:35:41.879Z,1009.19
2018-02-20T05:36:51.597Z,1009.23
2018-02-20T05:38:01.062Z,1009.22
2018-02-20T05:39:10.782Z,1009.27
2018-02-20T05:40:20.769Z,1009.25
2018-02-20T05:41:30.769Z,1009.2
2018-02-20T05:42:40.756Z,1009.24
2018-02-20T05:43:50.206Z,1009.26
2018-02-20T05:44:59.669Z,1009.24
2018-02-20T05:46:08.862Z,1009.28
2018-02-20T05:47:18.855Z,1009.29
2018-02-20T05:48:28.630Z,1009.31
2018-02-20T05:49:38.630Z,1009.31
2018-02-20T05:50:48.094Z,1009.33
2018-02-20T05:51:58.098Z,1009.32
2018-02-20T05:53:07.827Z,1009.32
2018-02-20T05:54:17.551Z,1009.32
2018-02-20T05:55:27.010Z,1009.32
2018-02-20T05:56:36.263Z,1009.36
2018-02-20T05:57:45.901Z,1009.36
2018-02-20T05:58:55.642Z,1009.43
2018-02-20T06:00:05.164Z,1009.41
2018-02-20T06:01:14.893Z,1009.43
2018-02-20T06:02:24.098Z,1009.44
2018-02-20T06:03:34.108Z,1009.52
2018-02-20T06:04:43.851Z,1009.53
2018-02-20T06:05:53.313Z,1009.55
2018-02-20T06:07:02.503Z,1009.56
2018-02-20T06:08:11.692Z,1009.59
2018-02-20T06:09:21.716Z,1009.62
2018-02-20T06:10:31.448Z,1009.63
2018-02-20T06:11:41.166Z,1009.64
2018-02-20T06:12:51.164Z,1009.63
2018-02-20T06:14:01.154Z,1009.62
2018-02-20T06:15:11.141Z,1009.6
2018-02-20T06:16:20.601Z,1009.59
2018-02-20T06:17:30.327Z,1009.61
2018-02-20T06:18:40.052Z,1009.59
2018-02-20T06:19:50.093Z,1009.57
2018-02-20T06:20:59.555Z,1009.59
2018-02-20T06:22:09.597Z,1009.58
2018-02-20T06:23:19.328Z,1009.61
2018-02-20T06:24:29.050Z,1009.62
2018-02-20T06:25:37.989Z,1009.59
2018-02-20T06:26:47.180Z,1009.59
2018-02-20T06:27:56.919Z,1009.56
2018-02-20T06:29:06.398Z,1009.55
2018-02-20T06:30:16.132Z,1009.58
2018-02-20T06:31:26.128Z,1009.54
2018-02-20T06:32:35.850Z,1009.57
2018-02-20T06:33:45.578Z,1009.55
2018-02-20T06:34:55.309Z,1009.57
2018-02-20T06:36:04.546Z,1009.6
2018-02-20T06:37:14.301Z,1009.58
2018-02-20T06:38:24.025Z,1009.59
2018-02-20T06:39:33.520Z,1009.59
2018-02-20T06:40:43.247Z,1009.6
2018-02-20T06:41:52.709Z,1009.59
2018-02-20T06:43:02.453Z,1009.56
2018-02-20T06:44:12.470Z,1009.55
2018-02-20T06:45:21.675Z,1009.51
2018-02-20T06:46:31.463Z,1009.47
2018-02-20T06:47:40.918Z,1009.47
2018-02-20T06:48:50.375Z,1009.51
2018-02-20T06:50:00.369Z,1009.48
2018-02-20T06:51:10.100Z,1009.46
2018-02-20T06:52:20.093Z,1009.48
2018-02-20T06:53:29.820Z,1009.51
2018-02-20T06:54:39.358Z,1009.49
2018-02-20T06:55:49.349Z,1009.51
2018-02-20T06:56:58.802Z,1009.55
2018-02-20T06:58:08.309Z,1009.55
2018-02-20T06:59:18.036Z,1009.59
2018-02-20T07:00:28.036Z,1009.55
2018-02-20T07:01:37.223Z,1009.61
2018-02-20T07:02:47.247Z,1009.6
2018-02-20T07:03:57.111Z,1009.68
2018-02-20T07:05:07.143Z,1009.67
2018-02-20T07:06:16.860Z,1009.68
2018-02-20T07:07:26.055Z,1009.64
2018-02-20T07:08:35.787Z,1009.64
2018-02-20T07:09:45.542Z,1009.63
2018-02-20T07:10:55.001Z,1009.63
2018-02-20T07:12:04.783Z,1009.62
2018-02-20T07:13:14.585Z,1009.59
2018-02-20T07:14:24.045Z,1009.56
2018-02-20T07:15:33.240Z,1009.55
2018-02-20T07:16:43.274Z,1009.54
2018-02-20T07:17:53.008Z,1009.56
2018-02-20T07:19:02.529Z,1009.55
2018-02-20T07:20:11.995Z,1009.56
2018-02-20T07:21:21.996Z,1009.58
2018-02-20T07:22:31.733Z,1009.66
2018-02-20T07:23:41.188Z,1009.65
2018-02-20T07:24:50.921Z,1009.69
2018-02-20T07:26:00.642Z,1009.68
2018-02-20T07:27:10.376Z,1009.69
2018-02-20T07:28:20.109Z,1009.69
2018-02-20T07:29:30.098Z,1009.72
2018-02-20T07:30:39.603Z,1009.67
2018-02-20T07:31:49.325Z,1009.66
2018-02-20T07:32:58.827Z,1009.65
2018-02-20T07:34:08.546Z,1009.66
2018-02-20T07:35:18.006Z,1009.65
2018-02-20T07:36:27.997Z,1009.69
2018-02-20T07:37:37.718Z,1009.67
2018-02-20T07:38:46.911Z,1009.72
2018-02-20T07:39:56.101Z,1009.73
2018-02-20T07:41:05.291Z,1009.8
2018-02-20T07:42:15.015Z,1009.78
2018-02-20T07:43:24.492Z,1009.8
2018-02-20T07:44:33.699Z,1009.81
2018-02-20T07:45:43.422Z,1009.8
2018-02-20T07:46:53.146Z,1009.8
2018-02-20T07:48:02.873Z,1009.84
2018-02-20T07:49:12.603Z,1009.87
2018-02-20T07:50:22.329Z,1009.87
2018-02-20T07:51:32.335Z,1009.89
2018-02-20T07:52:42.058Z,1009.93
2018-02-20T07:53:52.048Z,1009.84
2018-02-20T07:55:01.506Z,1009.88
2018-02-20T07:56:11.504Z,1009.87
2018-02-20T07:57:21.232Z,1009.87
2018-02-20T07:58:30.695Z,1009.92
2018-02-20T07:59:40.155Z,1009.93
2018-02-20T08:00:49.883Z,1009.96
2018-02-20T08:01:59.072Z,1009.99
2018-02-20T08:03:09.063Z,1009.98
2018-02-20T08:04:19.067Z,1009.99
2018-02-20T08:05:29.110Z,1009.98
2018-02-20T08:06:39.116Z,1010.01
2018-02-20T08:07:48.846Z,1009.99
2018-02-20T08:08:58.574Z,1009.97
2018-02-20T08:10:08.311Z,1009.96
2018-02-20T08:11:18.040Z,1009.98
2018-02-20T08:12:27.770Z,1009.95
2018-02-20T08:13:37.496Z,1009.95
2018-02-20T08:14:47.225Z,1009.94
2018-02-20T08:15:56.960Z,1009.92
2018-02-20T08:17:06.958Z,1009.94
2018-02-20T08:18:16.958Z,1009.9
2018-02-20T08:19:26.419Z,1009.92
2018-02-20T08:20:36.167Z,1009.91
2018-02-20T08:21:46.154Z,1009.93
2018-02-20T08:22:56.159Z,1009.96
2018-02-20T08:24:06.155Z,1009.96
2018-02-20T08:25:15.930Z,1009.99
2018-02-20T08:26:25.384Z,1010
2018-02-20T08:27:35.108Z,1009.99
2018-02-20T08:28:44.835Z,1010
2018-02-20T08:29:54.302Z,1009.97
2018-02-20T08:31:03.763Z,1009.97
2018-02-20T08:32:13.224Z,1009.93
2018-02-20T08:33:22.421Z,1009.98
2018-02-20T08:34:32.153Z,1009.99
2018-02-20T08:35:41.874Z,1009.94
2018-02-20T08:36:51.597Z,1009.99
2018-02-20T08:38:00.798Z,1009.94
2018-02-20T08:39:10.254Z,1009.95
2018-02-20T08:40:20.241Z,1009.97
2018-02-20T08:41:30.231Z,1009.98
2018-02-20T08:42:39.963Z,1009.97
2018-02-20T08:43:49.964Z,1009.97
2018-02-20T08:44:59.954Z,1010
2018-02-20T08:46:09.147Z,1010.02
2018-02-20T08:47:18.603Z,1010.02
2018-02-20T08:48:28.059Z,1010
2018-02-20T08:49:37.783Z,1010
2018-02-20T08:50:47.503Z,1009.95
2018-02-20T08:51:56.430Z,1009.94
2018-02-20T08:53:05.361Z,1009.98
2018-02-20T08:54:15.491Z,1010
2018-02-20T08:55:25.224Z,1009.93
2018-02-20T08:56:35.222Z,1009.89
2018-02-20T08:57:44.957Z,1009.89
2018-02-20T08:58:54.952Z,1009.88
2018-02-20T09:00:05.176Z,1009.84
2018-02-20T09:01:14.853Z,1009.86
2018-02-20T09:02:24.142Z,1009.86
2018-02-20T09:03:34.172Z,1009.84
2018-02-20T09:04:43.381Z,1009.82
2018-02-20T09:05:53.100Z,1009.86
2018-02-20T09:07:02.835Z,1009.82
2018-02-20T09:08:12.645Z,1009.86
2018-02-20T09:09:22.663Z,1009.84
2018-02-20T09:10:32.398Z,1009.87
2018-02-20T09:11:42.136Z,1009.86
2018-02-20T09:12:51.360Z,1009.88
2018-02-20T09:14:00.871Z,1009.87
2018-02-20T09:15:10.932Z,1009.84
2018-02-20T09:16:20.426Z,1009.85
2018-02-20T09:17:29.926Z,1009.85
2018-02-20T09:18:39.461Z,1009.85
2018-02-20T09:19:48.978Z,1009.85
2018-02-20T09:20:58.435Z,1009.83
2018-02-20T09:22:07.915Z,1009.84
2018-02-20T09:23:17.789Z,1009.81
2018-02-20T09:24:27.790Z,1009.79
2018-02-20T09:25:37.534Z,1009.81
2018-02-20T09:26:47.007Z,1009.78
2018-02-20T09:27:56.742Z,1009.86
2018-02-20T09:29:06.769Z,1009.82
2018-02-20T09:30:16.842Z,1009.82
2018-02-20T09:31:26.633Z,1009.77
2018-02-20T09:32:36.105Z,1009.83
2018-02-20T09:33:45.358Z,1009.76
2018-02-20T09:34:55.091Z,1009.81
2018-02-20T09:36:04.821Z,1009.75
2018-02-20T09:37:14.544Z,1009.76
2018-02-20T09:38:23.749Z,1009.75
2018-02-20T09:39:33.239Z,1009.78
2018-02-20T09:40:42.997Z,1009.78
2018-02-20T09:41:52.210Z,1009.77
2018-02-20T09:43:01.990Z,1009.8
2018-02-20T09:44:11.785Z,1009.8
2018-02-20T09:45:21.254Z,1009.83
2018-02-20T09:46:30.999Z,1009.82
2018-02-20T09:47:40.739Z,1009.78
2018-02-20T09:48:50.504Z,1009.84
2018-02-20T09:50:00.288Z,1009.83
2018-02-20T09:51:09.482Z,1009.79
2018-02-20T09:52:19.972Z,1009.84
2018-02-20T09:53:29.461Z,1009.81
2018-02-20T09:54:39.191Z,1009.8
2018-02-20T09:55:48.924Z,1009.84
2018-02-20T09:56:58.925Z,1009.86
2018-02-20T09:58:08.394Z,1009.86
2018-02-20T09:59:18.411Z,1009.84
2018-02-20T10:00:28.189Z,1009.79
2018-02-20T10:01:37.675Z,1009.81
2018-02-20T10:02:47.451Z,1009.81
2018-02-20T10:03:56.646Z,1009.84
2018-02-20T10:05:06.652Z,1009.78
2018-02-20T10:06:15.851Z,1009.83
2018-02-20T10:07:25.592Z,1009.85
2018-02-20T10:08:35.319Z,1009.81
2018-02-20T10:09:44.781Z,1009.85
2018-02-20T10:10:54.803Z,1009.84
2018-02-20T10:12:04.291Z,1009.85
2018-02-20T10:13:14.081Z,1009.9
2018-02-20T10:14:23.609Z,1009.94
2018-02-20T10:15:33.709Z,1009.91
2018-02-20T10:16:43.239Z,1009.94
2018-02-20T10:17:52.768Z,1009.95
2018-02-20T10:19:02.514Z,1009.91
2018-02-20T10:20:12.246Z,1009.97
2018-02-20T10:21:22.026Z,1009.99
2018-02-20T10:22:31.489Z,1010.04
2018-02-20T10:23:40.957Z,1010.04
2018-02-20T10:24:50.470Z,1010.06
2018-02-20T10:26:00.237Z,1010.12
2018-02-20T10:27:09.836Z,1010.1
2018-02-20T10:28:19.676Z,1010.09
2018-02-20T10:29:29.401Z,1010.15
2018-02-20T10:30:39.417Z,1010.15
2018-02-20T10:31:49.466Z,1010.18
2018-02-20T10:32:59.219Z,1010.12
2018-02-20T10:34:09.013Z,1010.2
2018-02-20T10:35:18.472Z,1010.24
2018-02-20T10:36:28.566Z,1010.31
2018-02-20T10:37:39.048Z,1010.29
2018-02-20T10:38:48.509Z,1010.3
2018-02-20T10:39:57.438Z,1010.3
2018-02-20T10:41:06.912Z,1010.28
2018-02-20T10:42:16.673Z,1010.24
2018-02-20T10:43:26.146Z,1010.26
2018-02-20T10:44:35.890Z,1010.35
2018-02-20T10:45:45.912Z,1010.33
2018-02-20T10:46:55.385Z,1010.29
2018-02-20T10:48:04.578Z,1010.27
2018-02-20T10:49:14.300Z,1010.28
2018-02-20T10:50:24.028Z,1010.25
2018-02-20T10:51:33.220Z,1010.25
2018-02-20T10:52:42.678Z,1010.21
2018-02-20T10:53:52.139Z,1010.2
2018-02-20T10:55:01.344Z,1010.21
2018-02-20T10:56:10.829Z,1010.23
2018-02-20T10:57:20.570Z,1010.19
2018-02-20T10:58:30.589Z,1010.26
2018-02-20T10:59:40.052Z,1010.25
2018-02-20T11:00:50.127Z,1010.23
2018-02-20T11:01:59.594Z,1010.28
2018-02-20T11:03:09.383Z,1010.25
2018-02-20T11:04:19.382Z,1010.28
2018-02-20T11:05:29.179Z,1010.26
2018-02-20T11:06:39.179Z,1010.26
2018-02-20T11:07:48.377Z,1010.28
2018-02-20T11:08:57.574Z,1010.25
2018-02-20T11:10:07.044Z,1010.24
2018-02-20T11:11:16.770Z,1010.25
2018-02-20T11:12:26.235Z,1010.26
2018-02-20T11:13:35.704Z,1010.28
2018-02-20T11:14:45.429Z,1010.29
2018-02-20T11:15:54.892Z,1010.27
2018-02-20T11:17:04.621Z,1010.27
2018-02-20T11:18:14.081Z,1010.29
2018-02-20T11:19:24.078Z,1010.26
2018-02-20T11:20:33.279Z,1010.22
2018-02-20T11:21:42.738Z,1010.25
2018-02-20T11:22:51.930Z,1010.24
2018-02-20T11:24:01.656Z,1010.23
2018-02-20T11:25:11.117Z,1010.27
2018-02-20T11:26:20.856Z,1010.27
2018-02-20T11:27:30.326Z,1010.24
2018-02-20T11:28:40.323Z,1010.25
2018-02-20T11:29:50.066Z,1010.21
2018-02-20T11:30:59.795Z,1010.25
2018-02-20T11:32:09.263Z,1010.24
2018-02-20T11:33:19.072Z,1010.23
2018-02-20T11:34:28.608Z,1010.26
2018-02-20T11:35:38.338Z,1010.21
2018-02-20T11:36:47.802Z,1010.23
2018-02-20T11:37:57.273Z,1010.23
2018-02-20T11:39:07.277Z,1010.19
2018-02-20T11:40:17.124Z,1010.2
2018-02-20T11:41:27.125Z,1010.19
2018-02-20T11:42:37.230Z,1010.17
2018-02-20T11:43:46.964Z,1010.16
2018-02-20T11:44:56.851Z,1010.14
2018-02-20T11:46:06.644Z,1010.1
2018-02-20T11:47:16.440Z,1010.09
2018-02-20T11:48:26.168Z,1010.08
2018-02-20T11:49:35.635Z,1010.07
2018-02-20T11:50:45.374Z,1010.12
2018-02-20T11:51:55.426Z,1010.06
2018-02-20T11:53:05.184Z,1010.1
2018-02-20T11:54:15.256Z,1010.11
2018-02-20T11:55:25.012Z,1010.1
2018-02-20T11:56:34.209Z,1010.1
2018-02-20T11:57:43.693Z,1010.09
2018-02-20T11:58:53.478Z,1010.08
2018-02-20T12:00:03.249Z,1010.06
2018-02-20T12:01:13.043Z,1010.03
2018-02-20T12:02:22.245Z,1010.01
2018-02-20T12:03:31.492Z,1010.03
2018-02-20T12:04:40.969Z,1010.03
2018-02-20T12:05:50.448Z,1010.04
2018-02-20T12:07:00.450Z,1010
2018-02-20T12:08:09.978Z,1009.96
2018-02-20T12:09:20.038Z,1009.93
2018-02-20T12:10:29.502Z,1009.95
2018-02-20T12:11:39.248Z,1009.93
2018-02-20T12:12:48.992Z,1009.96
2018-02-20T12:13:58.544Z,1009.95
2018-02-20T12:15:08.474Z,1009.93
2018-02-20T12:16:18.257Z,1009.92
2018-02-20T12:17:28.060Z,1009.92
2018-02-20T12:18:37.802Z,1009.88
2018-02-20T12:19:47.531Z,1009.89
2018-02-20T12:20:56.991Z,1009.86
2018-02-20T12:22:06.463Z,1009.87
2018-02-20T12:23:16.468Z,1009.9
2018-02-20T12:24:26.200Z,1009.87
2018-02-20T12:25:35.936Z,1009.9
2018-02-20T12:26:45.675Z,1009.86
2018-02-20T12:27:55.682Z,1009.92
2018-02-20T12:29:05.686Z,1009.93
2018-02-20T12:30:14.721Z,1009.92
2018-02-20T12:31:24.186Z,1009.89
2018-02-20T12:32:33.985Z,1009.92
2018-02-20T12:33:43.189Z,1009.96
2018-02-20T12:34:52.925Z,1009.93
2018-02-20T12:36:02.671Z,1009.92
2018-02-20T12:37:12.398Z,1009.84
2018-02-20T12:38:22.393Z,1009.84
2018-02-20T12:39:32.386Z,1009.77
2018-02-20T12:40:42.381Z,1009.82
2018-02-20T12:41:51.847Z,1009.8
2018-02-20T12:43:01.580Z,1009.8
2018-02-20T12:44:11.068Z,1009.76
2018-02-20T12:45:20.074Z,1009.8
2018-02-20T12:46:29.804Z,1009.74
2018-02-20T12:47:39.259Z,1009.76
2018-02-20T12:48:48.994Z,1009.74
2018-02-20T12:49:59.006Z,1009.79
2018-02-20T12:51:08.781Z,1009.72
2018-02-20T12:52:18.567Z,1009.76
2018-02-20T12:53:28.402Z,1009.73
2018-02-20T12:54:38.217Z,1009.75
2018-02-20T12:55:47.951Z,1009.76
2018-02-20T12:56:57.427Z,1009.77
2018-02-20T12:58:07.157Z,1009.83
2018-02-20T12:59:16.943Z,1009.81
2018-02-20T13:00:26.418Z,1009.83
2018-02-20T13:01:35.889Z,1009.83
2018-02-20T13:02:45.629Z,1009.81
2018-02-20T13:03:55.386Z,1009.81
2018-02-20T13:05:04.892Z,1009.88
2018-02-20T13:06:14.383Z,1009.81
2018-02-20T13:07:24.122Z,1009.88
2018-02-20T13:08:33.607Z,1009.88
2018-02-20T13:09:43.642Z,1009.85
2018-02-20T13:10:54.232Z,1009.82
2018-02-20T13:12:04.144Z,1009.82
2018-02-20T13:13:13.084Z,1009.76
2018-02-20T13:14:22.824Z,1009.79
2018-02-20T13:15:32.594Z,1009.78
2018-02-20T13:16:42.180Z,1009.79
2018-02-20T13:17:51.735Z,1009.8
2018-02-20T13:19:01.274Z,1009.79
2018-02-20T13:20:11.006Z,1009.74
2018-02-20T13:21:20.744Z,1009.72
2018-02-20T13:22:30.571Z,1009.79
2018-02-20T13:23:40.322Z,1009.76
2018-02-20T13:24:49.791Z,1009.79
2018-02-20T13:25:59.888Z,1009.78
2018-02-20T13:27:09.373Z,1009.82
2018-02-20T13:28:18.897Z,1009.8
2018-02-20T13:29:28.631Z,1009.78
2018-02-20T13:30:38.401Z,1009.76
2018-02-20T13:31:47.866Z,1009.78
2018-02-20T13:32:57.865Z,1009.77
2018-02-20T13:34:07.598Z,1009.79
2018-02-20T13:35:17.070Z,1009.79
2018-02-20T13:36:26.006Z,1009.75
2018-02-20T13:37:35.472Z,1009.77
2018-02-20T13:38:44.671Z,1009.77
2018-02-20T13:39:53.875Z,1009.79
2018-02-20T13:41:03.392Z,1009.79
2018-02-20T13:42:13.404Z,1009.78
2018-02-20T13:43:22.471Z,1009.81
2018-02-20T13:44:32.270Z,1009.78
2018-02-20T13:45:42.023Z,1009.8
2018-02-20T13:46:51.773Z,1009.76
2018-02-20T13:48:01.512Z,1009.75
2018-02-20T13:49:11.038Z,1009.8
2018-02-20T13:50:20.512Z,1009.77
2018-02-20T13:51:30.521Z,1009.83
2018-02-20T13:52:40.252Z,1009.82
2018-02-20T13:54:10.462Z,1009.83
2018-02-20T13:56:11.580Z,1009.8
2018-02-20T13:57:21.320Z,1009.82
2018-02-20T13:58:30.524Z,1009.85
2018-02-20T13:59:40.602Z,1009.84
2018-02-20T14:00:49.801Z,1009.87
2018-02-20T14:01:59.538Z,1009.9
2018-02-20T14:03:09.012Z,1009.9
2018-02-20T14:04:19.096Z,1009.86
2018-02-20T14:05:28.914Z,1009.9
2018-02-20T14:06:38.914Z,1009.92
2018-02-20T14:07:48.699Z,1009.89
2018-02-20T14:08:58.197Z,1009.89